createdAt,value
2017-01-08T21:41:22.707Z,20.88
2017-01-08T21:42:31.678Z,21.06
2017-01-08T21:43:40.656Z,21.13
2017-01-08T21:44:49.706Z,21.1
2017-01-08T21:45:58.739Z,21.09
2017-01-08T21:47:07.754Z,21.13
2017-01-08T21:48:16.732Z,21.1
2017-01-08T21:49:25.719Z,21.13
2017-01-08T21:50:34.683Z,21.06
2017-01-08T21:51:43.670Z,21.1
2017-01-08T21:52:52.665Z,21.05
2017-01-08T21:54:01.647Z,21.06
2017-01-08T21:55:10.631Z,20.99
2017-01-08T21:56:19.617Z,21.03
2017-01-08T21:57:28.587Z,21.06
2017-01-08T21:58:37.561Z,21.08
2017-01-08T21:59:46.735Z,21.03
2017-01-08T22:00:56.251Z,20.99
2017-01-08T22:02:05.439Z,21.12
2017-01-08T22:03:14.445Z,21.17
2017-01-08T22:04:24.245Z,21.09
2017-01-08T22:05:33.306Z,21.12
2017-01-08T22:06:42.345Z,21.1
2017-01-08T22:07:51.472Z,21.09
2017-01-08T22:09:00.728Z,21.13
2017-01-08T22:10:09.756Z,21.09
2017-01-08T22:11:18.739Z,21.06
2017-01-08T22:12:29.061Z,21.17
2017-01-08T22:13:38.141Z,21.1
2017-01-08T22:14:47.115Z,21.12
2017-01-08T22:15:56.107Z,21.2
2017-01-08T22:17:05.089Z,21.18
2017-01-08T22:18:14.072Z,21.12
2017-01-08T22:19:23.065Z,21.18
2017-01-08T22:20:32.052Z,21.21
2017-01-08T22:21:41.056Z,21.15
2017-01-08T22:22:50.053Z,21.13
2017-01-08T22:23:59.037Z,21.21
2017-01-08T22:25:08.123Z,21.23
2017-01-08T22:26:17.145Z,21.27
2017-01-08T22:27:26.131Z,21.23
2017-01-08T22:28:35.116Z,21.3
2017-01-08T22:29:45.113Z,21.31
2017-01-08T22:30:54.090Z,21.3
2017-01-08T22:32:03.092Z,21.27
2017-01-08T22:33:12.066Z,21.25
2017-01-08T22:34:21.097Z,21.24
2017-01-08T22:35:30.113Z,21.2
2017-01-08T22:36:39.133Z,21.24
2017-01-08T22:37:48.113Z,21.18
2017-01-08T22:38:57.094Z,21.27
2017-01-08T22:40:06.116Z,21.24
2017-01-08T22:41:15.212Z,21.2
2017-01-08T22:42:24.346Z,20.9
2017-01-08T22:43:33.504Z,20.5
2017-01-08T22:44:42.490Z,20.04
2017-01-08T22:45:51.460Z,19.83
2017-01-08T22:47:00.441Z,19.6
2017-01-08T22:48:09.439Z,19.45
2017-01-08T22:49:18.422Z,19.06
2017-01-08T22:50:27.412Z,19.02
2017-01-08T22:51:36.400Z,18.83
2017-01-08T22:52:45.375Z,18.66
2017-01-08T22:53:54.345Z,18.53
2017-01-08T22:55:03.330Z,18.39
2017-01-08T22:56:12.309Z,18.32
2017-01-08T22:57:21.310Z,18.16
2017-01-08T22:58:30.305Z,18.04
2017-01-08T22:59:39.291Z,17.94
2017-01-08T23:00:48.263Z,17.8
2017-01-08T23:01:57.245Z,17.69
2017-01-08T23:03:06.234Z,17.53
2017-01-08T23:04:15.199Z,17.47
2017-01-08T23:05:24.186Z,17.32
2017-01-08T23:06:33.158Z,17.15
2017-01-08T23:07:42.142Z,17.08
2017-01-08T23:08:51.143Z,16.96
2017-01-08T23:10:00.119Z,16.84
2017-01-08T23:11:09.096Z,16.75
2017-01-08T23:12:18.064Z,16.67
2017-01-08T23:13:27.045Z,16.58
2017-01-08T23:14:36.012Z,16.35
2017-01-08T23:15:44.990Z,16.27
2017-01-08T23:16:53.962Z,16.18
2017-01-08T23:18:02.947Z,16.23
2017-01-08T23:19:11.920Z,16.11
2017-01-08T23:20:20.895Z,16.03
2017-01-08T23:21:29.864Z,15.99
2017-01-08T23:22:38.836Z,16.04
2017-01-08T23:23:47.824Z,15.91
2017-01-08T23:24:56.808Z,15.81
2017-01-08T23:26:05.772Z,15.79
2017-01-08T23:27:14.752Z,15.67
2017-01-08T23:28:23.731Z,15.78
2017-01-08T23:29:32.755Z,15.79
2017-01-08T23:30:41.734Z,15.78
2017-01-08T23:31:50.707Z,15.7
2017-01-08T23:32:59.680Z,15.6
2017-01-08T23:34:08.662Z,15.53
2017-01-08T23:35:17.629Z,15.69
2017-01-08T23:36:26.614Z,15.71
2017-01-08T23:37:35.633Z,15.86
2017-01-08T23:38:44.606Z,15.66
2017-01-08T23:39:53.589Z,15.78
2017-01-08T23:41:02.562Z,15.66
2017-01-08T23:42:11.545Z,15.6
2017-01-08T23:43:20.513Z,15.44
2017-01-08T23:44:29.561Z,15.49
2017-01-08T23:45:38.965Z,15.48
2017-01-08T23:46:47.936Z,15.41
2017-01-08T23:47:56.908Z,15.45
2017-01-08T23:49:05.890Z,15.49
2017-01-08T23:50:14.872Z,15.63
2017-01-08T23:51:23.850Z,15.66
2017-01-08T23:52:32.831Z,15.52
2017-01-08T23:53:41.836Z,15.44
2017-01-08T23:54:50.810Z,15.41
2017-01-08T23:55:59.789Z,15.3
2017-01-08T23:57:08.784Z,15.45
2017-01-08T23:58:17.766Z,15.31
2017-01-08T23:59:26.742Z,15.38
